Time,TemperatureF,DewpointF,PressureIn,WindDirection,WindDirectionDegrees,WindSpeedMPH,WindSpeedGustMPH,Humidity,HourlyPrecipIn,Conditions,Clouds,dailyrainin,SolarRadiationWatts/m^2,SoftwareType,DateUTC
2013-11-11 00:00:00,53.5,42.0,30.06,WNW,292,1.2,1.2,65,0.00,CLR,,0.00,0.0,WeatherDisplay:10.37,2013-11-11 08:00:00,
2013-11-11 00:05:00,53.8,42.3,30.06,WNW,292,1.2,1.2,65,0.00,CLR,,0.00,0.0,WeatherDisplay:10.37,2013-11-11 08:05:00,
2013-11-11 00:10:00,53.8,42.3,30.06,WNW,292,1.2,0.0,65,0.00,CLR,,0.00,0.0,WeatherDisplay:10.37,2013-11-11 08:10:00,
2013-11-11 00:15:00,53.7,42.2,30.06,WNW,292,0.0,0.0,65,0.00,CLR,,0.00,0.0,WeatherDisplay:10.37,2013-11-11 08:15:00,
2013-11-11 00:20:00,53.6,42.5,30.06,WNW,292,0.0,0.0,66,0.00,CLR,,0.00,0.0,WeatherDisplay:10.37,2013-11-11 08:20:00,
2013-11-11 00:25:00,53.4,42.3,30.06,WNW,292,0.0,0.0,66,0.00,CLR,,0.00,0.0,WeatherDisplay:10.37,2013-11-11 08:25:00,
2013-11-11 00:30:00,53.1,42.0,30.06,WNW,292,0.0,0.0,66,0.00,CLR,,0.00,0.0,WeatherDisplay:10.37,2013-11-11 08:30:00,
2013-11-11 00:35:00,52.9,42.2,30.06,WNW,292,0.0,0.0,67,0.00,CLR,,0.00,0.0,WeatherDisplay:10.37,2013-11-11 08:35:00,
2013-11-11 00:40:00,52.6,42.3,30.05,WNW,292,1.2,1.2,68,0.00,CLR,,0.00,0.0,WeatherDisplay:10.37,2013-11-11 08:40:00,
2013-11-11 00:45:00,52.4,42.5,30.05,WNW,292,1.2,1.2,69,0.00,CLR,,0.00,0.0,WeatherDisplay:10.37,2013-11-11 08:45:00,
2013-11-11 00:50:00,52.3,42.8,30.05,WNW,292,1.2,1.2,70,0.00,CLR,,0.00,0.0,WeatherDisplay:10.37,2013-11-11 08:50:00,
2013-11-11 00:55:00,52.3,43.2,30.05,WNW,292,1.2,1.2,71,0.00,CLR,,0.00,0.0,WeatherDisplay:10.37,2013-11-11 08:55:00,
2013-11-11 01:00:00,52.4,43.3,30.06,WNW,292,1.2,1.2,71,0.00,CLR,,0.00,0.0,WeatherDisplay:10.37,2013-11-11 09:00:00,
2013-11-11 01:05:00,52.3,42.8,30.06,WNW,292,0.0,0.0,70,0.00,CLR,,0.00,0.0,WeatherDisplay:10.37,2013-11-11 09:05:00,
2013-11-11 01:10:00,52.2,42.7,30.06,WNW,292,0.0,0.0,70,0.00,CLR,,0.00,0.0,WeatherDisplay:10.37,2013-11-11 09:10:00,
2013-11-11 01:15:00,52.0,42.9,30.05,WNW,292,0.0,0.0,71,0.00,CLR,,0.00,0.0,WeatherDisplay:10.37,2013-11-11 09:15:00,
2013-11-11 01:20:00,51.8,42.7,30.05,WNW,292,0.0,0.0,71,0.00,CLR,,0.00,0.0,WeatherDisplay:10.37,2013-11-11 09:20:00,
2013-11-11 01:25:00,51.5,42.4,30.05,WNW,292,0.0,0.0,71,0.00,CLR,,0.00,0.0,WeatherDisplay:10.37,2013-11-11 09:25:00,
2013-11-11 01:30:00,51.4,42.7,30.05,WNW,292,0.0,0.0,72,0.00,CLR,,0.00,0.0,WeatherDisplay:10.37,2013-11-11 09:30:00,
2013-11-11 01:35:00,51.3,42.6,30.05,WNW,292,0.0,0.0,72,0.00,CLR,,0.00,0.0,WeatherDisplay:10.37,2013-11-11 09:35:00,
2013-11-11 01:40:00,51.3,42.6,30.05,WNW,292,0.0,0.1,72,0.00,CLR,,0.00,0.0,WeatherDisplay:10.37,2013-11-11 09:40:00,
2013-11-11 01:45:00,51.3,42.6,30.05,WNW,292,0.0,0.0,72,0.00,CLR,,0.00,0.0,WeatherDisplay:10.37,2013-11-11 09:45:00,
2013-11-11 01:50:00,51.3,42.6,30.05,WNW,292,0.0,0.0,72,0.00,CLR,,0.00,0.0,WeatherDisplay:10.37,2013-11-11 09:50:00,
2013-11-11 01:55:00,51.5,42.8,30.05,WNW,292,1.0,1.0,72,0.00,CLR,,0.00,0.0,WeatherDisplay:10.37,2013-11-11 09:55:00,
2013-11-11 02:00:00,51.8,42.7,30.05,WNW,292,0.0,0.0,71,0.00,CLR,,0.00,0.0,WeatherDisplay:10.37,2013-11-11 10:00:00,
2013-11-11 02:05:00,52.1,42.6,30.05,WNW,292,0.0,0.0,70,0.00,CLR,,0.00,0.0,WeatherDisplay:10.37,2013-11-11 10:05:00,
2013-11-11 02:10:00,52.4,42.5,30.05,WNW,292,0.0,0.0,69,0.00,CLR,,0.00,0.0,WeatherDisplay:10.37,2013-11-11 10:10:00,
2013-11-11 02:15:00,52.5,43.0,30.05,WNW,292,1.0,1.0,70,0.00,CLR,,0.00,0.0,WeatherDisplay:10.37,2013-11-11 10:15:00,
2013-11-11 02:20:00,52.7,43.2,30.05,WNW,292,1.2,0.0,70,0.00,CLR,,0.00,0.0,WeatherDisplay:10.37,2013-11-11 10:20:00,
2013-11-11 02:25:00,52.8,43.3,30.05,WNW,292,1.2,0.0,70,0.00,CLR,,0.00,0.0,WeatherDisplay:10.37,2013-11-11 10:25:00,
2013-11-11 02:30:00,52.8,43.3,30.05,WNW,292,0.0,0.0,70,0.00,CLR,,0.00,0.0,WeatherDisplay:10.37,2013-11-11 10:30:00,
2013-11-11 02:35:00,52.8,43.3,30.04,WNW,292,2.3,2.3,70,0.00,CLR,,0.00,0.0,WeatherDisplay:10.37,2013-11-11 10:35:00,
2013-11-11 02:40:00,52.6,43.5,30.04,WNW,292,0.0,0.0,71,0.00,CLR,,0.00,0.0,WeatherDisplay:10.37,2013-11-11 10:40:00,
2013-11-11 02:45:00,52.3,43.2,30.04,WNW,292,1.2,0.0,71,0.00,CLR,,0.00,0.0,WeatherDisplay:10.37,2013-11-11 10:45:00,
2013-11-11 02:50:00,52.0,42.9,30.04,WNW,292,0.0,0.0,71,0.00,CLR,,0.00,0.0,WeatherDisplay:10.37,2013-11-11 10:50:00,
2013-11-11 02:55:00,51.6,42.9,30.04,WNW,292,0.0,0.0,72,0.00,CLR,,0.00,0.0,WeatherDisplay:10.37,2013-11-11 10:55:00,
2013-11-11 03:00:00,51.4,43.0,30.04,WNW,292,0.0,0.0,73,0.00,CLR,,0.00,0.0,WeatherDisplay:10.37,2013-11-11 11:00:00,
2013-11-11 03:05:00,51.1,42.7,30.04,WNW,292,0.0,0.0,73,0.00,CLR,,0.00,0.0,WeatherDisplay:10.37,2013-11-11 11:05:00,
2013-11-11 03:10:00,50.9,42.6,30.04,WNW,292,0.0,0.0,73,0.00,CLR,,0.00,0.0,WeatherDisplay:10.37,2013-11-11 11:10:00,
2013-11-11 03:15:00,50.7,42.7,30.04,WNW,292,1.2,0.0,74,0.00,CLR,,0.00,0.0,WeatherDisplay:10.37,2013-11-11 11:15:00,
2013-11-11 03:20:00,50.7,43.1,30.03,WNW,292,1.2,1.2,75,0.00,CLR,,0.00,0.0,WeatherDisplay:10.37,2013-11-11 11:20:00,
2013-11-11 03:25:00,50.7,43.1,30.03,WNW,292,0.0,0.0,75,0.00,CLR,,0.00,0.0,WeatherDisplay:10.37,2013-11-11 11:25:00,
2013-11-11 03:30:00,50.7,43.1,30.04,WNW,292,1.2,1.2,75,0.00,CLR,,0.00,0.0,WeatherDisplay:10.37,2013-11-11 11:30:00,
2013-11-11 03:35:00,50.8,43.2,30.04,WNW,292,0.0,0.0,75,0.00,CLR,,0.00,0.0,WeatherDisplay:10.37,2013-11-11 11:35:00,
2013-11-11 03:40:00,50.8,43.2,30.04,WNW,292,0.0,0.0,75,0.00,CLR,,0.00,0.0,WeatherDisplay:10.37,2013-11-11 11:40:00,
2013-11-11 03:45:00,50.8,43.2,30.04,WNW,292,0.0,0.0,75,0.00,CLR,,0.00,0.0,WeatherDisplay:10.37,2013-11-11 11:45:00,
2013-11-11 03:50:00,50.6,43.0,30.04,WNW,292,1.2,1.2,75,0.00,CLR,,0.00,0.0,WeatherDisplay:10.37,2013-11-11 11:50:00,
2013-11-11 03:55:00,50.5,42.9,30.04,WNW,292,1.2,0.0,75,0.00,CLR,,0.00,0.0,WeatherDisplay:10.37,2013-11-11 11:55:00,
2013-11-11 04:00:00,50.3,42.7,30.04,WNW,292,1.2,0.0,75,0.00,CLR,,0.00,0.0,WeatherDisplay:10.37,2013-11-11 12:00:00,
2013-11-11 04:05:00,50.0,42.7,30.04,WNW,292,1.2,0.0,76,0.00,CLR,,0.00,0.0,WeatherDisplay:10.37,2013-11-11 12:05:00,
2013-11-11 04:10:00,49.8,42.5,30.05,WNW,292,0.0,0.0,76,0.00,CLR,,0.00,0.0,WeatherDisplay:10.37,2013-11-11 12:10:00,
2013-11-11 04:15:00,49.6,42.3,30.05,WNW,292,0.0,0.0,76,0.00,CLR,,0.00,0.0,WeatherDisplay:10.37,2013-11-11 12:15:00,
2013-11-11 04:20:00,49.4,42.5,30.05,WNW,292,0.0,0.0,77,0.00,CLR,,0.00,0.0,WeatherDisplay:10.37,2013-11-11 12:20:00,
2013-11-11 04:25:00,49.2,42.3,30.05,WNW,292,0.0,0.0,77,0.00,CLR,,0.00,0.0,WeatherDisplay:10.37,2013-11-11 12:25:00,
2013-11-11 04:30:00,49.0,42.1,30.05,WNW,292,0.0,0.0,77,0.00,CLR,,0.00,0.0,WeatherDisplay:10.37,2013-11-11 12:30:00,
2013-11-11 04:35:00,49.2,42.6,30.05,WNW,292,1.2,0.0,78,0.00,CLR,,0.00,0.0,WeatherDisplay:10.37,2013-11-11 12:35:00,
2013-11-11 04:40:00,49.3,42.4,30.05,WNW,292,0.0,0.0,77,0.00,CLR,,0.00,0.0,WeatherDisplay:10.37,2013-11-11 12:40:00,
2013-11-11 04:45:00,49.5,42.6,30.05,WNW,292,0.0,0.0,77,0.00,CLR,,0.00,0.0,WeatherDisplay:10.37,2013-11-11 12:45:00,
2013-11-11 04:50:00,49.6,42.3,30.05,WNW,292,1.2,1.2,76,0.00,CLR,,0.00,0.0,WeatherDisplay:10.37,2013-11-11 12:50:00,
2013-11-11 04:55:00,49.4,42.1,30.05,WNW,292,0.0,0.0,76,0.00,CLR,,0.00,0.0,WeatherDisplay:10.37,2013-11-11 12:55:00,
2013-11-11 05:00:00,49.4,42.1,30.05,WNW,292,0.0,0.0,76,0.00,CLR,,0.00,0.0,WeatherDisplay:10.37,2013-11-11 13:00:00,
2013-11-11 05:05:00,49.3,42.1,30.05,WNW,292,0.0,0.0,76,0.00,CLR,,0.00,0.0,WeatherDisplay:10.37,2013-11-11 13:05:00,
2013-11-11 05:10:00,49.4,42.1,30.06,WNW,292,1.2,1.2,76,0.00,CLR,,0.00,0.0,WeatherDisplay:10.37,2013-11-11 13:10:00,
2013-11-11 05:15:00,49.5,42.2,30.06,WNW,292,0.0,0.0,76,0.00,CLR,,0.00,0.0,WeatherDisplay:10.37,2013-11-11 13:15:00,
2013-11-11 05:20:00,49.3,42.1,30.06,WNW,292,0.0,0.0,76,0.00,CLR,,0.00,0.0,WeatherDisplay:10.37,2013-11-11 13:20:00,
2013-11-11 05:25:00,49.1,41.9,30.06,WNW,292,0.0,0.0,76,0.00,CLR,,0.00,0.0,WeatherDisplay:10.37,2013-11-11 13:25:00,
2013-11-11 05:30:00,49.0,41.8,30.07,WNW,292,0.0,0.0,76,0.00,CLR,,0.00,0.0,WeatherDisplay:10.37,2013-11-11 13:30:00,
2013-11-11 05:35:00,48.9,42.0,30.07,WNW,292,0.0,0.0,77,0.00,CLR,,0.00,0.0,WeatherDisplay:10.37,2013-11-11 13:35:00,
2013-11-11 05:40:00,48.8,41.9,30.06,WNW,292,0.0,0.0,77,0.00,CLR,,0.00,0.0,WeatherDisplay:10.37,2013-11-11 13:40:00,
2013-11-11 05:45:00,48.7,41.8,30.06,WNW,292,0.0,0.0,77,0.00,CLR,,0.00,0.0,WeatherDisplay:10.37,2013-11-11 13:45:00,
2013-11-11 05:50:00,48.6,41.7,30.07,WNW,292,0.0,0.0,77,0.00,CLR,,0.00,0.0,WeatherDisplay:10.37,2013-11-11 13:50:00,
2013-11-11 05:55:00,48.4,41.9,30.07,WNW,292,0.0,0.0,78,0.00,CLR,,0.00,0.0,WeatherDisplay:10.37,2013-11-11 13:55:00,
2013-11-11 06:00:00,48.3,41.8,30.07,WNW,292,0.0,0.0,78,0.00,CLR,,0.00,0.0,WeatherDisplay:10.37,2013-11-11 14:00:00,
2013-11-11 06:05:00,48.3,41.8,30.06,WNW,292,0.0,0.0,78,0.00,CLR,,0.00,0.0,WeatherDisplay:10.37,2013-11-11 14:05:00,
2013-11-11 06:10:00,48.3,41.8,30.07,WNW,292,0.0,0.0,78,0.00,CLR,,0.00,0.0,WeatherDisplay:10.37,2013-11-11 14:10:00,
2013-11-11 06:15:00,48.2,41.7,30.07,WNW,292,0.0,0.0,78,0.00,CLR,,0.00,0.0,WeatherDisplay:10.37,2013-11-11 14:15:00,
2013-11-11 06:20:00,48.2,41.7,30.07,WNW,292,1.2,0.0,78,0.00,CLR,,0.00,0.0,WeatherDisplay:10.37,2013-11-11 14:20:00,
2013-11-11 06:25:00,48.2,41.7,30.07,WNW,292,0.0,0.0,78,0.00,CLR,,0.00,5.0,WeatherDisplay:10.37,2013-11-11 14:25:00,
2013-11-11 06:30:00,48.2,41.7,30.07,WNW,292,0.0,0.0,78,0.00,SCT,,0.00,9.0,WeatherDisplay:10.37,2013-11-11 14:30:00,
2013-11-11 06:35:00,48.2,41.7,30.07,WNW,292,1.2,1.2,78,0.00,BKN,,0.00,12.0,WeatherDisplay:10.37,2013-11-11 14:35:00,
2013-11-11 06:40:00,48.2,41.7,30.07,WNW,292,1.2,0.0,78,0.00,BKN,,0.00,18.0,WeatherDisplay:10.37,2013-11-11 14:40:00,
2013-11-11 06:45:00,48.2,41.7,30.07,WNW,292,0.0,0.0,78,0.00,BKN,,0.00,21.0,WeatherDisplay:10.37,2013-11-11 14:45:00,
2013-11-11 06:50:00,48.3,42.1,30.07,WNW,292,0.0,0.0,79,0.00,BKN,,0.00,26.0,WeatherDisplay:10.37,2013-11-11 14:50:00,
2013-11-11 06:55:00,48.6,42.4,30.07,WNW,292,0.0,0.0,79,0.00,BKN,,0.00,35.0,WeatherDisplay:10.37,2013-11-11 14:55:00,
2013-11-11 07:00:00,49.0,42.8,30.07,WNW,292,1.0,0.0,79,0.00,BKN,,0.00,44.0,WeatherDisplay:10.37,2013-11-11 15:00:00,
2013-11-11 07:05:00,49.8,43.2,30.07,WNW,292,0.0,0.0,78,0.00,SCT,,0.00,58.0,WeatherDisplay:10.37,2013-11-11 15:05:00,
2013-11-11 07:10:00,50.3,43.4,30.07,WNW,292,1.2,1.2,77,0.00,SCT,,0.00,70.0,WeatherDisplay:10.37,2013-11-11 15:10:00,
2013-11-11 07:15:00,50.8,43.8,30.07,WNW,292,0.0,0.0,77,0.00,SCT,,0.00,84.0,WeatherDisplay:10.37,2013-11-11 15:15:00,
2013-11-11 07:20:00,51.3,44.3,30.07,WNW,292,0.0,0.0,77,0.00,SCT,,0.00,98.0,WeatherDisplay:10.37,2013-11-11 15:20:00,
2013-11-11 07:25:00,51.9,44.6,30.08,WNW,292,0.0,0.0,76,0.00,FEW,,0.00,113.0,WeatherDisplay:10.37,2013-11-11 15:25:00,
2013-11-11 07:30:00,52.9,45.2,30.08,WNW,292,0.0,0.0,75,0.00,FEW,,0.00,128.0,WeatherDisplay:10.37,2013-11-11 15:30:00,
2013-11-11 07:35:00,54.0,45.9,30.08,WNW,292,0.0,0.0,74,0.00,FEW,,0.00,148.0,WeatherDisplay:10.37,2013-11-11 15:35:00,
2013-11-11 07:40:00,55.4,46.5,30.08,WNW,292,0.0,0.0,72,0.00,CLR,,0.00,165.0,WeatherDisplay:10.37,2013-11-11 15:40:00,
2013-11-11 07:45:00,56.7,47.0,30.08,WNW,292,0.0,0.0,70,0.00,CLR,,0.00,183.0,WeatherDisplay:10.37,2013-11-11 15:45:00,
2013-11-11 07:50:00,57.7,46.8,30.09,WNW,292,0.0,0.0,67,0.00,CLR,,0.00,200.0,WeatherDisplay:10.37,2013-11-11 15:50:00,
2013-11-11 07:55:00,58.5,47.2,30.09,WNW,292,0.0,0.0,66,0.00,CLR,,0.00,213.0,WeatherDisplay:10.37,2013-11-11 15:55:00,
2013-11-11 08:00:00,59.5,46.9,30.09,WNW,292,1.2,1.2,63,0.00,CLR,,0.00,230.0,WeatherDisplay:10.37,2013-11-11 16:00:00,
2013-11-11 08:05:00,60.2,46.7,30.09,WNW,292,0.0,0.0,61,0.00,CLR,,0.00,244.0,WeatherDisplay:10.37,2013-11-11 16:05:00,
2013-11-11 08:11:00,61.1,47.1,30.08,WNW,292,2.0,2.0,60,0.00,CLR,,0.00,260.0,WeatherDisplay:10.37,2013-11-11 16:11:00,
2013-11-11 08:16:00,61.5,46.6,30.09,WNW,292,1.2,1.2,58,0.00,CLR,,0.00,272.0,WeatherDisplay:10.37,2013-11-11 16:16:00,
2013-11-11 08:21:00,61.9,47.0,30.09,WNW,292,0.0,0.0,58,0.00,CLR,,0.00,287.0,WeatherDisplay:10.37,2013-11-11 16:21:00,
2013-11-11 08:26:00,62.4,47.0,30.09,WNW,292,0.0,0.0,57,0.00,CLR,,0.00,301.0,WeatherDisplay:10.37,2013-11-11 16:26:00,
2013-11-11 08:31:00,62.5,47.1,30.09,WNW,292,1.2,0.0,57,0.00,CLR,,0.00,313.0,WeatherDisplay:10.37,2013-11-11 16:31:00,
2013-11-11 08:36:00,62.6,47.1,30.09,WNW,292,3.5,3.5,57,0.00,CLR,,0.00,323.0,WeatherDisplay:10.37,2013-11-11 16:36:00,
2013-11-11 08:41:00,62.3,46.4,30.09,WNW,292,3.5,3.5,56,0.00,CLR,,0.00,336.0,WeatherDisplay:10.37,2013-11-11 16:41:00,
2013-11-11 08:46:00,62.2,46.8,30.09,WNW,292,3.5,3.5,57,0.00,CLR,,0.00,348.0,WeatherDisplay:10.37,2013-11-11 16:46:00,
2013-11-11 08:51:00,62.2,46.8,30.09,WNW,292,2.3,2.3,57,0.00,CLR,,0.00,360.0,WeatherDisplay:10.37,2013-11-11 16:51:00,
2013-11-11 08:56:00,62.6,46.7,30.09,WNW,292,3.5,3.5,56,0.00,CLR,,0.00,369.0,WeatherDisplay:10.37,2013-11-11 16:56:00,
2013-11-11 09:01:00,62.9,46.0,30.09,WNW,292,3.5,3.5,54,0.00,CLR,,0.00,385.0,WeatherDisplay:10.37,2013-11-11 17:01:00,
2013-11-11 09:06:00,63.2,46.8,30.09,WNW,292,3.5,3.5,55,0.00,CLR,,0.00,396.0,WeatherDisplay:10.37,2013-11-11 17:06:00,
2013-11-11 09:11:00,63.5,46.6,30.09,WNW,292,3.5,3.5,54,0.00,CLR,,0.00,403.0,WeatherDisplay:10.37,2013-11-11 17:11:00,
2013-11-11 09:16:00,63.8,46.8,30.09,WNW,292,3.5,3.5,54,0.00,CLR,,0.00,415.0,WeatherDisplay:10.37,2013-11-11 17:16:00,
2013-11-11 09:21:00,64.3,46.8,30.09,WNW,292,3.5,3.5,53,0.00,CLR,,0.00,424.0,WeatherDisplay:10.37,2013-11-11 17:21:00,
2013-11-11 09:26:00,65.0,47.4,30.09,WNW,292,3.5,3.5,53,0.00,CLR,,0.00,436.0,WeatherDisplay:10.37,2013-11-11 17:26:00,
2013-11-11 09:31:00,65.5,46.9,30.09,WNW,292,3.5,3.5,51,0.00,CLR,,0.00,446.0,WeatherDisplay:10.37,2013-11-11 17:31:00,
2013-11-11 09:36:00,65.8,47.2,30.09,WNW,292,3.5,3.5,51,0.00,CLR,,0.00,457.0,WeatherDisplay:10.37,2013-11-11 17:36:00,
2013-11-11 09:41:00,66.1,46.9,30.09,WNW,292,3.5,3.5,50,0.00,CLR,,0.00,468.0,WeatherDisplay:10.37,2013-11-11 17:41:00,
2013-11-11 09:46:00,66.3,46.0,30.09,WNW,292,4.0,4.0,48,0.00,CLR,,0.00,476.0,WeatherDisplay:10.37,2013-11-11 17:46:00,
2013-11-11 09:51:00,66.3,46.0,30.10,WNW,292,3.5,3.5,48,0.00,CLR,,0.00,485.0,WeatherDisplay:10.37,2013-11-11 17:51:00,
2013-11-11 09:56:00,66.8,46.5,30.10,WNW,292,3.5,3.5,48,0.00,CLR,,0.00,492.0,WeatherDisplay:10.37,2013-11-11 17:56:00,
2013-11-11 10:01:00,67.4,47.0,30.10,WNW,292,4.0,4.0,48,0.00,CLR,,0.00,499.0,WeatherDisplay:10.37,2013-11-11 18:01:00,
2013-11-11 10:06:00,68.1,47.1,30.10,WNW,292,4.0,4.0,47,0.00,CLR,,0.00,504.0,WeatherDisplay:10.37,2013-11-11 18:06:00,
2013-11-11 10:11:00,68.7,47.1,30.10,WNW,292,3.5,3.5,46,0.00,CLR,,0.00,508.0,WeatherDisplay:10.37,2013-11-11 18:11:00,
2013-11-11 10:16:00,68.8,46.6,30.10,WNW,292,4.6,4.6,45,0.00,CLR,,0.00,519.0,WeatherDisplay:10.37,2013-11-11 18:16:00,
2013-11-11 10:21:00,69.2,46.4,30.10,WNW,290,5.0,5.0,44,0.00,CLR,,0.00,526.0,WeatherDisplay:10.37,2013-11-11 18:21:00,
2013-11-11 10:26:00,69.5,45.4,30.10,WNW,288,4.6,4.6,42,0.00,CLR,,0.00,533.0,WeatherDisplay:10.37,2013-11-11 18:26:00,
2013-11-11 10:31:00,69.7,45.6,30.10,WNW,288,4.6,4.6,42,0.00,CLR,,0.00,534.0,WeatherDisplay:10.37,2013-11-11 18:31:00,
2013-11-11 10:36:00,69.6,45.5,30.10,WNW,288,4.0,4.0,42,0.00,CLR,,0.00,541.0,WeatherDisplay:10.37,2013-11-11 18:36:00,
2013-11-11 10:41:00,69.7,46.2,30.10,WNW,288,3.5,0.0,43,0.00,CLR,,0.00,543.0,WeatherDisplay:10.37,2013-11-11 18:41:00,
2013-11-11 10:46:00,70.0,45.8,30.10,WNW,288,3.5,3.5,42,0.00,CLR,,0.00,550.0,WeatherDisplay:10.37,2013-11-11 18:46:00,
2013-11-11 10:51:00,70.2,44.7,30.09,WNW,286,3.5,3.5,40,0.00,CLR,,0.00,555.0,WeatherDisplay:10.37,2013-11-11 18:51:00,
2013-11-11 10:56:00,70.4,45.6,30.09,WNW,285,3.5,3.5,41,0.00,CLR,,0.00,559.0,WeatherDisplay:10.37,2013-11-11 18:56:00,
2013-11-11 11:01:00,70.9,45.4,30.09,WNW,285,2.3,2.3,40,0.00,CLR,,0.00,564.0,WeatherDisplay:10.37,2013-11-11 19:01:00,
2013-11-11 11:06:00,71.7,45.4,30.09,WNW,285,4.0,4.0,39,0.00,CLR,,0.00,566.0,WeatherDisplay:10.37,2013-11-11 19:06:00,
2013-11-11 11:11:00,71.9,45.6,30.08,WNW,285,3.5,3.5,39,0.00,CLR,,0.00,570.0,WeatherDisplay:10.37,2013-11-11 19:11:00,
2013-11-11 11:16:00,72.1,45.8,30.08,WNW,285,3.5,3.5,39,0.00,CLR,,0.00,570.0,WeatherDisplay:10.37,2013-11-11 19:16:00,
2013-11-11 11:21:00,72.8,45.0,30.08,WNW,285,2.3,2.3,37,0.00,CLR,,0.00,575.0,WeatherDisplay:10.37,2013-11-11 19:21:00,
2013-11-11 11:26:00,73.2,44.6,30.08,West,281,6.0,6.0,36,0.00,CLR,,0.00,571.0,WeatherDisplay:10.37,2013-11-11 19:26:00,
2013-11-11 11:31:00,73.1,45.3,30.08,West,281,3.5,3.5,37,0.00,CLR,,0.00,573.0,WeatherDisplay:10.37,2013-11-11 19:31:00,
2013-11-11 11:36:00,73.6,45.7,30.07,West,281,3.5,0.0,37,0.00,CLR,,0.00,571.0,WeatherDisplay:10.37,2013-11-11 19:36:00,
2013-11-11 11:41:00,73.8,45.2,30.07,WNW,284,6.9,6.9,36,0.00,CLR,,0.00,571.0,WeatherDisplay:10.37,2013-11-11 19:41:00,
2013-11-11 11:46:00,73.9,45.3,30.07,WNW,283,3.5,3.5,36,0.00,CLR,,0.00,571.0,WeatherDisplay:10.37,2013-11-11 19:46:00,
2013-11-11 11:51:00,74.4,45.0,30.07,SW,215,3.5,3.5,35,0.00,CLR,,0.00,570.0,WeatherDisplay:10.37,2013-11-11 19:51:00,
2013-11-11 11:56:00,74.5,44.3,30.06,SSW,206,9.2,9.2,34,0.00,CLR,,0.00,564.0,WeatherDisplay:10.37,2013-11-11 19:56:00,
2013-11-11 12:01:00,74.6,44.4,30.06,SSW,206,4.6,4.6,34,0.00,CLR,,0.00,566.0,WeatherDisplay:10.37,2013-11-11 20:01:00,
2013-11-11 12:06:00,75.0,44.7,30.06,West,274,5.8,5.8,34,0.00,CLR,,0.00,559.0,WeatherDisplay:10.37,2013-11-11 20:06:00,
2013-11-11 12:11:00,75.2,44.1,30.06,WNW,286,5.0,5.0,33,0.00,CLR,,0.00,559.0,WeatherDisplay:10.37,2013-11-11 20:11:00,
2013-11-11 12:16:00,75.2,43.3,30.05,WNW,290,3.5,3.5,32,0.00,CLR,,0.00,557.0,WeatherDisplay:10.37,2013-11-11 20:16:00,
2013-11-11 12:21:00,75.9,44.7,30.05,WNW,288,5.8,5.8,33,0.00,CLR,,0.00,548.0,WeatherDisplay:10.37,2013-11-11 20:21:00,
2013-11-11 12:26:00,76.2,45.0,30.05,WNW,285,3.5,3.5,33,0.00,CLR,,0.00,547.0,WeatherDisplay:10.37,2013-11-11 20:26:00,
2013-11-11 12:31:00,76.5,45.2,30.05,WNW,290,5.8,5.8,33,0.00,CLR,,0.00,540.0,WeatherDisplay:10.37,2013-11-11 20:31:00,
2013-11-11 12:36:00,76.7,45.4,30.04,WNW,287,3.5,3.5,33,0.00,CLR,,0.00,538.0,WeatherDisplay:10.37,2013-11-11 20:36:00,
2013-11-11 12:41:00,77.1,45.8,30.04,West,275,5.8,5.8,33,0.00,CLR,,0.00,499.0,WeatherDisplay:10.37,2013-11-11 20:41:00,
2013-11-11 12:46:00,77.6,46.2,30.04,West,269,3.5,3.5,33,0.00,SCT,,0.00,469.0,WeatherDisplay:10.37,2013-11-11 20:46:00,
2013-11-11 12:51:00,78.2,44.2,30.03,West,269,5.0,5.0,30,0.00,CLR,,0.00,520.0,WeatherDisplay:10.37,2013-11-11 20:51:00,
2013-11-11 12:56:00,78.3,43.4,30.04,West,270,3.0,3.0,29,0.00,CLR,,0.00,512.0,WeatherDisplay:10.37,2013-11-11 20:56:00,
2013-11-11 13:01:00,78.0,43.2,30.03,NW,308,3.5,3.5,29,0.00,CLR,,0.00,506.0,WeatherDisplay:10.37,2013-11-11 21:01:00,
2013-11-11 13:06:00,78.3,43.4,30.03,WNW,286,6.0,6.0,29,0.00,CLR,,0.00,508.0,WeatherDisplay:10.37,2013-11-11 21:06:00,
2013-11-11 13:11:00,78.3,43.4,30.03,WNW,290,4.0,4.0,29,0.00,CLR,,0.00,494.0,WeatherDisplay:10.37,2013-11-11 21:11:00,
2013-11-11 13:16:00,78.6,44.6,30.03,WNW,283,3.5,3.5,30,0.00,CLR,,0.00,487.0,WeatherDisplay:10.37,2013-11-11 21:16:00,
2013-11-11 13:21:00,78.8,43.8,30.03,SW,225,3.5,3.5,29,0.00,CLR,,0.00,482.0,WeatherDisplay:10.37,2013-11-11 21:21:00,
2013-11-11 13:26:00,79.3,42.4,30.03,SW,221,5.0,5.0,27,0.00,CLR,,0.00,476.0,WeatherDisplay:10.37,2013-11-11 21:26:00,
2013-11-11 13:31:00,79.7,42.8,30.02,SSW,213,3.5,3.5,27,0.00,CLR,,0.00,468.0,WeatherDisplay:10.37,2013-11-11 21:31:00,
2013-11-11 13:36:00,79.5,41.6,30.03,West,271,5.8,5.8,26,0.00,CLR,,0.00,454.0,WeatherDisplay:10.37,2013-11-11 21:36:00,
2013-11-11 13:41:00,79.3,41.4,30.02,WNW,282,5.8,5.8,26,0.00,CLR,,0.00,439.0,WeatherDisplay:10.37,2013-11-11 21:41:00,
2013-11-11 13:46:00,79.6,43.6,30.02,West,269,5.0,5.0,28,0.00,CLR,,0.00,432.0,WeatherDisplay:10.37,2013-11-11 21:46:00,
2013-11-11 13:51:00,79.7,45.5,30.02,WSW,254,3.5,3.5,30,0.00,CLR,,0.00,427.0,WeatherDisplay:10.37,2013-11-11 21:51:00,
2013-11-11 13:56:00,80.1,46.7,30.02,WSW,250,4.0,4.0,31,0.00,CLR,,0.00,422.0,WeatherDisplay:10.37,2013-11-11 21:56:00,
2013-11-11 14:01:00,80.1,45.0,30.02,WSW,257,5.8,5.8,29,0.00,CLR,,0.00,411.0,WeatherDisplay:10.37,2013-11-11 22:01:00,
2013-11-11 14:06:00,80.1,45.0,30.01,WSW,258,3.5,3.5,29,0.00,CLR,,0.00,406.0,WeatherDisplay:10.37,2013-11-11 22:06:00,
2013-11-11 14:11:00,80.1,45.0,30.01,West,269,4.6,4.6,29,0.00,CLR,,0.00,392.0,WeatherDisplay:10.37,2013-11-11 22:11:00,
2013-11-11 14:16:00,80.4,45.2,30.01,West,269,1.2,1.2,29,0.00,CLR,,0.00,387.0,WeatherDisplay:10.37,2013-11-11 22:16:00,
2013-11-11 14:21:00,80.8,44.6,30.01,West,263,6.0,6.0,28,0.00,CLR,,0.00,374.0,WeatherDisplay:10.37,2013-11-11 22:21:00,
2013-11-11 14:26:00,80.6,44.5,30.01,WSW,240,5.8,5.8,28,0.00,CLR,,0.00,352.0,WeatherDisplay:10.37,2013-11-11 22:26:00,
2013-11-11 14:31:00,80.4,44.3,30.00,WSW,242,3.5,3.5,28,0.00,FEW,,0.00,267.0,WeatherDisplay:10.37,2013-11-11 22:31:00,
2013-11-11 14:36:00,79.8,43.8,30.01,WSW,257,4.6,4.6,28,0.00,FEW,,0.00,272.0,WeatherDisplay:10.37,2013-11-11 22:36:00,
2013-11-11 14:41:00,79.5,43.5,30.01,WSW,258,6.0,6.0,28,0.00,FEW,,0.00,265.0,WeatherDisplay:10.37,2013-11-11 22:41:00,
2013-11-11 14:46:00,79.2,44.2,30.00,West,264,6.9,6.9,29,0.00,CLR,,0.00,274.0,WeatherDisplay:10.37,2013-11-11 22:46:00,
2013-11-11 14:51:00,78.8,43.8,30.00,West,260,5.8,5.8,29,0.00,SCT,,0.00,151.0,WeatherDisplay:10.37,2013-11-11 22:51:00,
2013-11-11 14:56:00,78.7,43.8,30.00,West,259,3.5,3.5,29,0.00,SCT,,0.00,199.0,WeatherDisplay:10.37,2013-11-11 22:56:00,
2013-11-11 15:01:00,78.6,43.7,30.00,West,259,4.6,4.6,29,0.00,CLR,,0.00,144.0,WeatherDisplay:10.37,2013-11-11 23:01:00,
2013-11-11 15:06:00,78.2,44.2,30.00,West,262,8.1,8.1,30,0.00,FEW,,0.00,204.0,WeatherDisplay:10.37,2013-11-11 23:06:00,
2013-11-11 15:11:00,77.8,44.7,30.01,West,261,5.8,5.8,31,0.00,SCT,,0.00,130.0,WeatherDisplay:10.37,2013-11-11 23:11:00,
2013-11-11 15:16:00,77.5,45.3,30.01,West,273,8.1,8.1,32,0.00,CLR,,0.00,251.0,WeatherDisplay:10.37,2013-11-11 23:16:00,
2013-11-11 15:21:00,77.2,45.9,30.01,WNW,286,8.0,8.0,33,0.00,SCT,,0.00,155.0,WeatherDisplay:10.37,2013-11-11 23:21:00,
2013-11-11 15:26:00,76.9,46.4,30.01,West,265,10.0,10.0,34,0.00,CLR,,0.00,190.0,WeatherDisplay:10.37,2013-11-11 23:26:00,
2013-11-11 15:31:00,76.6,46.1,30.01,West,278,8.1,8.1,34,0.00,CLR,,0.00,169.0,WeatherDisplay:10.37,2013-11-11 23:31:00,
2013-11-11 15:36:00,76.0,46.4,30.01,West,261,11.5,11.5,35,0.00,BKN,,0.00,76.0,WeatherDisplay:10.37,2013-11-11 23:36:00,
2013-11-11 15:41:00,75.4,46.6,30.01,West,263,8.1,8.1,36,0.00,BKN,,0.00,69.0,WeatherDisplay:10.37,2013-11-11 23:41:00,
2013-11-11 15:46:00,74.7,47.4,30.02,West,265,9.2,9.2,38,0.00,BKN,,0.00,58.0,WeatherDisplay:10.37,2013-11-11 23:46:00,
2013-11-11 15:51:00,74.1,49.5,30.02,West,265,11.5,11.5,42,0.00,BKN,,0.00,62.0,WeatherDisplay:10.37,2013-11-11 23:51:00,
2013-11-11 15:56:00,73.6,49.7,30.02,West,267,10.4,10.4,43,0.00,BKN,,0.00,51.0,WeatherDisplay:10.37,2013-11-11 23:56:00,
2013-11-11 16:01:00,73.2,50.0,30.02,WNW,291,8.1,8.1,44,0.00,FEW,,0.00,93.0,WeatherDisplay:10.37,2013-11-12 00:01:00,
2013-11-11 16:06:00,73.0,51.0,30.02,West,273,6.0,6.0,46,0.00,SCT,,0.00,56.0,WeatherDisplay:10.37,2013-11-12 00:06:00,
2013-11-11 16:11:00,72.8,48.4,30.02,WNW,293,7.0,7.0,42,0.00,SCT,,0.00,56.0,WeatherDisplay:10.37,2013-11-12 00:11:00,
2013-11-11 16:16:00,72.5,48.7,30.02,WNW,297,4.6,4.6,43,0.00,SCT,,0.00,53.0,WeatherDisplay:10.37,2013-11-12 00:16:00,
2013-11-11 16:21:00,72.2,47.2,30.02,NW,304,4.6,4.6,41,0.00,FEW,,0.00,46.0,WeatherDisplay:10.37,2013-11-12 00:21:00,
2013-11-11 16:26:00,71.8,46.2,30.01,NW,311,3.5,3.5,40,0.00,FEW,,0.00,40.0,WeatherDisplay:10.37,2013-11-12 00:26:00,
2013-11-11 16:31:00,71.5,45.2,30.01,NW,318,5.8,5.8,39,0.00,CLR,,0.00,35.0,WeatherDisplay:10.37,2013-11-12 00:31:00,
2013-11-11 16:36:00,71.3,47.0,30.01,WNW,298,4.0,4.0,42,0.00,CLR,,0.00,26.0,WeatherDisplay:10.37,2013-11-12 00:36:00,
2013-11-11 16:41:00,71.0,48.0,30.02,WNW,284,6.9,6.9,44,0.00,CLR,,0.00,18.0,WeatherDisplay:10.37,2013-11-12 00:41:00,
2013-11-11 16:46:00,70.6,48.2,30.02,West,275,5.8,5.8,45,0.00,CLR,,0.00,9.0,WeatherDisplay:10.37,2013-11-12 00:46:00,
2013-11-11 16:51:00,70.4,49.2,30.02,West,274,4.6,4.6,47,0.00,CLR,,0.00,0.0,WeatherDisplay:10.37,2013-11-12 00:51:00,
2013-11-11 16:56:00,70.0,49.4,30.02,West,266,6.9,6.9,48,0.00,CLR,,0.00,0.0,WeatherDisplay:10.37,2013-11-12 00:56:00,
2013-11-11 17:01:00,69.7,49.1,30.03,West,271,8.1,8.1,48,0.00,CLR,,0.00,0.0,WeatherDisplay:10.37,2013-11-12 01:01:00,
2013-11-11 17:06:00,69.3,49.9,30.04,West,265,8.1,8.1,50,0.00,CLR,,0.00,0.0,WeatherDisplay:10.37,2013-11-12 01:06:00,
2013-11-11 17:11:00,68.9,49.5,30.04,West,272,11.5,11.5,50,0.00,CLR,,0.00,0.0,WeatherDisplay:10.37,2013-11-12 01:11:00,
2013-11-11 17:16:00,68.4,50.1,30.05,West,279,12.7,12.7,52,0.00,CLR,,0.00,0.0,WeatherDisplay:10.37,2013-11-12 01:16:00,
2013-11-11 17:21:00,67.9,51.1,30.05,West,273,10.4,10.4,55,0.00,CLR,,0.00,0.0,WeatherDisplay:10.37,2013-11-12 01:21:00,
2013-11-11 17:26:00,67.4,51.6,30.05,WNW,286,8.1,8.1,57,0.00,CLR,,0.00,0.0,WeatherDisplay:10.37,2013-11-12 01:26:00,
2013-11-11 17:31:00,67.1,51.4,30.05,West,281,6.0,6.0,57,0.00,CLR,,0.00,0.0,WeatherDisplay:10.37,2013-11-12 01:31:00,
2013-11-11 17:36:00,66.9,51.6,30.05,WNW,287,7.0,7.0,58,0.00,CLR,,0.00,0.0,WeatherDisplay:10.37,2013-11-12 01:36:00,
2013-11-11 17:41:00,66.7,50.0,30.05,West,281,6.0,6.0,55,0.00,CLR,,0.00,0.0,WeatherDisplay:10.37,2013-11-12 01:41:00,
2013-11-11 17:46:00,66.5,49.8,30.05,West,275,5.8,5.8,55,0.00,CLR,,0.00,0.0,WeatherDisplay:10.37,2013-11-12 01:46:00,
2013-11-11 17:51:00,66.3,48.7,30.05,WNW,287,6.9,6.9,53,0.00,CLR,,0.00,0.0,WeatherDisplay:10.37,2013-11-12 01:51:00,
2013-11-11 17:56:00,66.1,49.0,30.05,WNW,286,3.5,3.5,54,0.00,CLR,,0.00,0.0,WeatherDisplay:10.37,2013-11-12 01:56:00,
2013-11-11 18:01:00,66.0,49.4,30.06,WNW,286,3.5,3.5,55,0.00,CLR,,0.00,0.0,WeatherDisplay:10.37,2013-11-12 02:01:00,
2013-11-11 18:06:00,65.8,49.7,30.06,WNW,286,3.5,3.5,56,0.00,CLR,,0.00,0.0,WeatherDisplay:10.37,2013-11-12 02:06:00,
2013-11-11 18:11:00,65.7,49.6,30.06,WNW,286,3.5,3.5,56,0.00,CLR,,0.00,0.0,WeatherDisplay:10.37,2013-11-12 02:11:00,
2013-11-11 18:16:00,65.5,49.9,30.06,WNW,286,0.0,0.0,57,0.00,CLR,,0.00,0.0,WeatherDisplay:10.37,2013-11-12 02:16:00,
2013-11-11 18:21:00,65.3,50.1,30.07,WNW,286,1.2,1.2,58,0.00,CLR,,0.00,0.0,WeatherDisplay:10.37,2013-11-12 02:21:00,
2013-11-11 18:26:00,65.0,49.9,30.07,WNW,286,1.2,0.0,58,0.00,CLR,,0.00,0.0,WeatherDisplay:10.37,2013-11-12 02:26:00,
2013-11-11 18:31:00,64.8,50.1,30.07,WNW,286,1.2,0.0,59,0.00,CLR,,0.00,0.0,WeatherDisplay:10.37,2013-11-12 02:31:00,
2013-11-11 18:36:00,64.6,50.4,30.06,WNW,286,0.0,0.0,60,0.00,CLR,,0.00,0.0,WeatherDisplay:10.37,2013-11-12 02:36:00,
2013-11-11 18:41:00,64.5,50.7,30.07,WNW,286,0.0,0.0,61,0.00,CLR,,0.00,0.0,WeatherDisplay:10.37,2013-11-12 02:41:00,
2013-11-11 18:46:00,64.4,51.1,30.07,WNW,286,1.2,1.2,62,0.00,CLR,,0.00,0.0,WeatherDisplay:10.37,2013-11-12 02:46:00,
2013-11-11 18:51:00,64.3,51.0,30.07,WNW,286,1.2,1.2,62,0.00,CLR,,0.00,0.0,WeatherDisplay:10.37,2013-11-12 02:51:00,
2013-11-11 18:56:00,64.3,51.4,30.07,WNW,286,1.0,1.0,63,0.00,CLR,,0.00,0.0,WeatherDisplay:10.37,2013-11-12 02:56:00,
2013-11-11 19:01:00,64.2,51.8,30.07,WNW,286,1.2,0.0,64,0.00,CLR,,0.00,0.0,WeatherDisplay:10.37,2013-11-12 03:01:00,
2013-11-11 19:06:00,64.1,52.1,30.08,WNW,286,2.3,2.3,65,0.00,CLR,,0.00,0.0,WeatherDisplay:10.37,2013-11-12 03:06:00,
2013-11-11 19:11:00,64.0,52.4,30.08,WNW,286,0.0,0.0,66,0.00,CLR,,0.00,0.0,WeatherDisplay:10.37,2013-11-12 03:11:00,
2013-11-11 19:16:00,63.7,52.1,30.08,WNW,286,0.0,0.0,66,0.00,CLR,,0.00,0.0,WeatherDisplay:10.37,2013-11-12 03:16:00,
2013-11-11 19:21:00,63.5,51.9,30.08,WNW,286,0.0,0.0,66,0.00,CLR,,0.00,0.0,WeatherDisplay:10.37,2013-11-12 03:21:00,
2013-11-11 19:26:00,63.3,52.2,30.08,WNW,286,1.0,1.0,67,0.00,CLR,,0.00,0.0,WeatherDisplay:10.37,2013-11-12 03:26:00,
2013-11-11 19:31:00,63.2,52.1,30.08,WNW,286,0.0,0.0,67,0.00,CLR,,0.00,0.0,WeatherDisplay:10.37,2013-11-12 03:31:00,
2013-11-11 19:36:00,63.1,52.4,30.08,WNW,286,0.0,0.0,68,0.00,CLR,,0.00,0.0,WeatherDisplay:10.37,2013-11-12 03:36:00,
2013-11-11 19:41:00,62.8,52.5,30.08,WNW,286,0.0,0.0,69,0.00,CLR,,0.00,0.0,WeatherDisplay:10.37,2013-11-12 03:41:00,
2013-11-11 19:46:00,62.5,52.6,30.08,WNW,286,0.0,0.0,70,0.00,CLR,,0.00,0.0,WeatherDisplay:10.37,2013-11-12 03:46:00,
2013-11-11 19:51:00,62.1,52.2,30.08,WNW,286,0.0,0.0,70,0.00,CLR,,0.00,0.0,WeatherDisplay:10.37,2013-11-12 03:51:00,
2013-11-11 19:56:00,61.8,51.9,30.08,WNW,286,0.0,0.0,70,0.00,CLR,,0.00,0.0,WeatherDisplay:10.37,2013-11-12 03:56:00,
2013-11-11 20:01:00,61.3,51.8,30.09,WNW,286,1.0,0.0,71,0.00,CLR,,0.00,0.0,WeatherDisplay:10.37,2013-11-12 04:01:00,
2013-11-11 20:06:00,61.1,52.4,30.08,WNW,286,1.2,0.0,73,0.00,CLR,,0.00,0.0,WeatherDisplay:10.37,2013-11-12 04:06:00,
2013-11-11 20:11:00,60.9,52.2,30.08,WNW,286,0.0,0.0,73,0.00,CLR,,0.00,0.0,WeatherDisplay:10.37,2013-11-12 04:11:00,
2013-11-11 20:16:00,60.5,51.8,30.08,WNW,286,0.0,0.1,73,0.00,CLR,,0.00,0.0,WeatherDisplay:10.37,2013-11-12 04:16:00,
2013-11-11 20:21:00,60.2,51.5,30.08,WNW,286,1.2,0.0,73,0.00,CLR,,0.00,0.0,WeatherDisplay:10.37,2013-11-12 04:21:00,
2013-11-11 20:26:00,60.0,51.7,30.08,WNW,286,0.0,0.0,74,0.00,CLR,,0.00,0.0,WeatherDisplay:10.37,2013-11-12 04:26:00,
2013-11-11 20:31:00,59.9,51.6,30.09,WNW,286,1.2,0.0,74,0.00,CLR,,0.00,0.0,WeatherDisplay:10.37,2013-11-12 04:31:00,
2013-11-11 20:36:00,59.8,51.5,30.09,WNW,286,0.0,0.0,74,0.00,CLR,,0.00,0.0,WeatherDisplay:10.37,2013-11-12 04:36:00,
2013-11-11 20:41:00,59.7,51.4,30.09,WNW,286,0.0,0.0,74,0.00,CLR,,0.00,0.0,WeatherDisplay:10.37,2013-11-12 04:41:00,
2013-11-11 20:46:00,59.5,51.2,30.09,WNW,286,0.0,0.0,74,0.00,CLR,,0.00,0.0,WeatherDisplay:10.37,2013-11-12 04:46:00,
2013-11-11 20:51:00,59.2,50.9,30.09,WNW,286,0.0,0.0,74,0.00,CLR,,0.00,0.0,WeatherDisplay:10.37,2013-11-12 04:51:00,
2013-11-11 20:56:00,59.1,50.8,30.09,WNW,286,0.0,0.0,74,0.00,CLR,,0.00,0.0,WeatherDisplay:10.37,2013-11-12 04:56:00,
2013-11-11 21:01:00,59.0,50.7,30.09,WNW,286,1.2,1.2,74,0.00,CLR,,0.00,0.0,WeatherDisplay:10.37,2013-11-12 05:01:00,
2013-11-11 21:02:00,59.0,50.7,30.09,WNW,286,1.2,1.2,74,0.00,CLR,,0.00,0.0,WeatherDisplay:10.37,2013-11-12 05:02:00,
2013-11-11 21:03:00,59.0,50.7,30.09,WNW,286,2.0,2.0,74,0.00,CLR,,0.00,0.0,WeatherDisplay:10.37,2013-11-12 05:03:00,
2013-11-11 21:08:00,58.9,50.6,30.09,WNW,286,2.3,2.3,74,0.00,CLR,,0.00,0.0,WeatherDisplay:10.37,2013-11-12 05:08:00,
2013-11-11 21:13:00,58.6,50.3,30.09,WNW,286,0.0,0.0,74,0.00,CLR,,0.00,0.0,WeatherDisplay:10.37,2013-11-12 05:13:00,
2013-11-11 21:18:00,58.5,50.2,30.10,WNW,286,1.2,1.2,74,0.00,CLR,,0.00,0.0,WeatherDisplay:10.37,2013-11-12 05:18:00,
2013-11-11 21:23:00,58.4,50.1,30.10,WNW,286,0.0,0.0,74,0.00,CLR,,0.00,0.0,WeatherDisplay:10.37,2013-11-12 05:23:00,
2013-11-11 21:28:00,58.2,50.0,30.10,WNW,286,0.0,0.0,74,0.00,CLR,,0.00,0.0,WeatherDisplay:10.37,2013-11-12 05:28:00,
2013-11-11 21:33:00,58.1,50.2,30.10,WNW,286,1.2,0.0,75,0.00,CLR,,0.00,0.0,WeatherDisplay:10.37,2013-11-12 05:33:00,
2013-11-11 21:38:00,58.0,50.1,30.10,WNW,286,0.0,0.0,75,0.00,CLR,,0.00,0.0,WeatherDisplay:10.37,2013-11-12 05:38:00,
2013-11-11 21:43:00,57.8,49.9,30.10,WNW,286,1.2,1.2,75,0.00,CLR,,0.00,0.0,WeatherDisplay:10.37,2013-11-12 05:43:00,
2013-11-11 21:48:00,57.8,49.9,30.10,WNW,286,1.2,0.0,75,0.00,CLR,,0.00,0.0,WeatherDisplay:10.37,2013-11-12 05:48:00,
2013-11-11 21:53:00,57.8,49.9,30.11,WNW,286,1.2,1.2,75,0.00,CLR,,0.00,0.0,WeatherDisplay:10.37,2013-11-12 05:53:00,
2013-11-11 21:58:00,57.8,49.6,30.11,WNW,286,1.2,0.0,74,0.00,CLR,,0.00,0.0,WeatherDisplay:10.37,2013-11-12 05:58:00,
2013-11-11 22:03:00,57.9,49.7,30.12,WNW,286,1.2,1.2,74,0.00,CLR,,0.00,0.0,WeatherDisplay:10.37,2013-11-12 06:03:00,
2013-11-11 22:08:00,58.0,49.8,30.12,WNW,286,1.2,1.2,74,0.00,CLR,,0.00,0.0,WeatherDisplay:10.37,2013-11-12 06:08:00,
2013-11-11 22:13:00,57.9,49.7,30.11,WNW,286,2.3,2.3,74,0.00,CLR,,0.00,0.0,WeatherDisplay:10.37,2013-11-12 06:13:00,
2013-11-11 22:18:00,58.1,50.6,30.12,WNW,286,2.3,2.3,76,0.00,CLR,,0.00,0.0,WeatherDisplay:10.37,2013-11-12 06:18:00,
2013-11-11 22:23:00,58.4,50.9,30.12,WNW,286,2.3,2.3,76,0.00,CLR,,0.00,0.0,WeatherDisplay:10.37,2013-11-12 06:23:00,
2013-11-11 22:28:00,58.7,52.2,30.12,WNW,286,2.3,2.3,79,0.00,CLR,,0.00,0.0,WeatherDisplay:10.37,2013-11-12 06:28:00,
2013-11-11 22:33:00,59.1,53.3,30.12,WNW,286,2.0,2.0,81,0.00,CLR,,0.00,0.0,WeatherDisplay:10.37,2013-11-12 06:33:00,
2013-11-11 22:38:00,59.3,53.8,30.12,WNW,286,2.3,2.3,82,0.00,CLR,,0.00,0.0,WeatherDisplay:10.37,2013-11-12 06:38:00,
2013-11-11 22:43:00,59.4,53.9,30.12,WNW,286,1.2,0.0,82,0.00,CLR,,0.00,0.0,WeatherDisplay:10.37,2013-11-12 06:43:00,
2013-11-11 22:48:00,59.3,53.8,30.12,WNW,286,1.2,1.2,82,0.00,CLR,,0.00,0.0,WeatherDisplay:10.37,2013-11-12 06:48:00,
2013-11-11 22:53:00,59.3,54.1,30.11,WNW,286,1.2,1.2,83,0.00,CLR,,0.00,0.0,WeatherDisplay:10.37,2013-11-12 06:53:00,
2013-11-11 22:58:00,59.0,53.5,30.11,WNW,286,1.2,1.2,82,0.00,CLR,,0.00,0.0,WeatherDisplay:10.37,2013-11-12 06:58:00,
2013-11-11 23:03:00,58.3,52.5,30.11,WNW,286,1.2,1.2,81,0.00,CLR,,0.00,0.0,WeatherDisplay:10.37,2013-11-12 07:03:00,
2013-11-11 23:08:00,57.8,51.7,30.11,WNW,286,1.2,1.2,80,0.00,CLR,,0.00,0.0,WeatherDisplay:10.37,2013-11-12 07:08:00,
2013-11-11 23:13:00,57.4,51.3,30.11,WNW,286,0.0,0.0,80,0.00,CLR,,0.00,0.0,WeatherDisplay:10.37,2013-11-12 07:13:00,
2013-11-11 23:18:00,57.1,51.0,30.11,WNW,286,2.3,2.3,80,0.00,CLR,,0.00,0.0,WeatherDisplay:10.37,2013-11-12 07:18:00,
2013-11-11 23:23:00,56.9,50.8,30.11,WNW,286,1.2,1.2,80,0.00,CLR,,0.00,0.0,WeatherDisplay:10.37,2013-11-12 07:23:00,
2013-11-11 23:28:00,56.7,50.6,30.11,WNW,286,0.0,0.0,80,0.00,CLR,,0.00,0.0,WeatherDisplay:10.37,2013-11-12 07:28:00,
2013-11-11 23:33:00,56.7,51.3,30.10,WNW,286,1.2,0.0,82,0.00,CLR,,0.00,0.0,WeatherDisplay:10.37,2013-11-12 07:33:00,
2013-11-11 23:38:00,56.7,51.3,30.10,WNW,286,0.0,0.0,82,0.00,CLR,,0.00,0.0,WeatherDisplay:10.37,2013-11-12 07:38:00,
2013-11-11 23:43:00,56.7,51.9,30.10,WNW,286,0.0,0.0,84,0.00,CLR,,0.00,0.0,WeatherDisplay:10.37,2013-11-12 07:43:00,
2013-11-11 23:48:00,56.8,52.0,30.10,WNW,286,0.0,0.0,84,0.00,CLR,,0.00,0.0,WeatherDisplay:10.37,2013-11-12 07:48:00,
2013-11-11 23:53:00,56.8,52.0,30.09,WNW,286,0.0,0.0,84,0.00,CLR,,0.00,0.0,WeatherDisplay:10.37,2013-11-12 07:53:00,
2013-11-11 23:58:00,56.8,52.3,30.09,WNW,286,0.0,0.0,85,0.00,CLR,,0.00,0.0,WeatherDisplay:10.37,2013-11-12 07:58:00,